Mc Gregor, North Dakota
Current Conditions -  °F | °C
As of 10:15 AM on Thursday 23 Oct 2014 (Local Time) from KD60 Reporting Station
Clear Clear  
Wind Chill: 43°   Ceiling: Unl
Heat Index: 46°   Visibility: 10mi
Dew Point: 37°   Wind: 7mph
Humidity: 71%   Direction: 220°SW
Pressure: 29.87"   Gusts: NA
Location:  48.5898°N, 102.95°W
Report Text: KD60 231515Z AUTO 22006KT 10SM CLR 08/03 A2987 RMK AO2
Loading
Personal Weather Stations






























Interactive Weather Map
Tropical Storm Tracking
New forecast layout! Learn more

10-Day Weather Forecast

Advertisements
Track Severe Weather on mobile